Time;durP1;ratioP1;P1;durP2;ratioP2;P2;SDS_P1;SDS_P2;PMS_P1;PMS_P2;Temp;Humidity;BMP_temperature;BMP_pressure;BME280_temperature;BME280_humidity;BME280_pressure;Samples;Min_cycle;Max_cycle;Signal;HPM_P1;HPM_P2
2023/03/25 00:01:28;;;;;;;;;15.75;13.75;;;;;11.66;71.73;100928.81;146621;628;45021;-77
2023/03/25 00:04:34;;;;;;;;;19.50;16.00;;;;;11.69;71.33;100917.69;146618;580;45016;-82
2023/03/25 00:07:58;;;;;;;;;16.25;15.25;;;;;11.68;71.28;100910.69;146619;573;46010;-82
2023/03/25 00:11:14;;;;;;;;;14.25;14.25;;;;;11.62;71.21;100898.31;146612;565;46012;-79
2023/03/25 00:14:11;;;;;;;;;18.00;15.00;;;;;11.61;71.07;100901.72;146621;705;45020;-78
2023/03/25 00:17:35;;;;;;;;;16.00;15.00;;;;;11.26;70.99;100835.03;146616;572;46012;-74
2023/03/25 00:20:34;;;;;;;;;21.25;15.50;;;;;11.61;71.16;100888.72;146617;590;45020;-79
2023/03/25 00:23:40;;;;;;;;;18.00;17.00;;;;;11.71;70.29;100896.19;146616;692;45016;-79
2023/03/25 00:26:41;;;;;;;;;17.00;16.25;;;;;11.73;70.96;100891.94;146615;569;47010;-79
2023/03/25 00:29:56;;;;;;;;;;;;;;;;;;;;;
2023/03/25 00:32:56;;;;;;;;;19.50;16.50;;;;;11.87;70.31;100877.06;146614;622;46012;-77
2023/03/25 00:36:12;;;;;;;;;18.00;17.00;;;;;11.89;69.88;100871.94;146614;580;45016;-78
2023/03/25 00:39:24;;;;;;;;;17.00;16.00;;;;;11.89;69.45;100869.31;146618;579;45021;-77
2023/03/25 00:42:35;;;;;;;;;14.25;14.00;;;;;11.87;69.34;100866.66;146614;583;45912;-77
2023/03/25 00:45:42;;;;;;;;;15.75;14.75;;;;;11.91;70.08;100865.09;146617;617;45020;-82
2023/03/25 00:48:42;;;;;;;;;18.50;15.00;;;;;11.95;69.68;100867.91;146616;654;45016;-76
2023/03/25 00:51:44;;;;;;;;;17.25;15.25;;;;;11.90;69.75;100859.03;146616;563;46020;-75
2023/03/25 00:54:57;;;;;;;;;16.00;14.00;;;;;11.88;69.84;100860.66;146615;572;45017;-74
2023/03/25 00:58:04;;;;;;;;;17.75;16.00;;;;;11.88;69.60;100859.75;146618;612;45020;-75
2023/03/25 01:01:01;;;;;;;;;20.75;14.50;;;;;11.87;69.37;100858.88;146615;569;45017;-77
2023/03/25 01:04:19;;;;;;;;;14.50;14.50;;;;;11.81;69.07;100855.94;146618;638;45020;-77
2023/03/25 01:07:14;;;;;;;;;17.00;15.50;;;;;11.71;69.35;100849.41;146615;675;45017;-73
2023/03/25 01:10:16;;;;;;;;;17.75;15.75;;;;;11.60;69.26;100853.19;146617;630;45020;-73
2023/03/25 01:13:11;;;;;;;;;17.25;16.00;;;;;11.52;69.71;100844.13;146615;606;45016;-75
2023/03/25 01:16:21;;;;;;;;;18.50;16.00;;;;;11.44;69.79;100850.66;146615;577;45021;-74
2023/03/25 01:19:26;;;;;;;;;19.25;16.75;;;;;11.34;70.19;100846.72;146616;566;45016;-76
2023/03/25 01:22:23;;;;;;;;;18.25;16.75;;;;;11.27;70.65;100842.00;146617;578;45021;-76
2023/03/25 01:25:49;;;;;;;;;20.75;18.25;;;;;11.22;70.17;100840.91;146611;605;45018;-76
2023/03/25 01:28:58;;;;;;;;;15.50;15.50;;;;;11.13;70.13;100833.53;146616;571;45021;-73
2023/03/25 01:31:59;;;;;;;;;18.00;15.75;;;;;11.04;70.37;100835.66;146614;580;45017;-76
2023/03/25 01:34:56;;;;;;;;;15.75;15.00;;;;;10.92;70.40;100825.56;146616;675;45020;-76
2023/03/25 01:38:00;;;;;;;;;18.50;16.25;;;;;10.84;71.19;100826.84;146613;574;45017;-76
2023/03/25 01:41:11;;;;;;;;;20.00;16.75;;;;;10.80;71.59;100817.13;146616;615;45020;-76
2023/03/25 01:44:50;;;;;;;;;19.25;15.00;;;;;10.71;71.97;100821.84;146613;603;45023;-77
2023/03/25 01:48:05;;;;;;;;;13.75;13.00;;;;;10.64;71.88;100813.75;146618;571;45020;-76
2023/03/25 01:51:10;;;;;;;;;14.75;14.25;;;;;10.59;71.67;100810.03;146612;607;46012;-75
2023/03/25 01:54:26;;;;;;;;;21.75;17.50;;;;;10.57;72.10;100800.41;146617;565;46012;-77
2023/03/25 01:57:45;;;;;;;;;15.75;15.00;;;;;9.67;71.61;100641.91;146620;647;45016;-76
2023/03/25 02:00:40;;;;;;;;;19.50;16.00;;;;;10.64;72.41;100798.19;146614;590;45021;-75
2023/03/25 02:04:19;;;;;;;;;17.50;15.00;;;;;10.39;71.37;100738.09;146616;599;45016;-76
2023/03/25 02:07:29;;;;;;;;;16.75;14.25;;;;;10.78;71.33;100803.22;146617;566;45021;-82
2023/03/25 02:10:36;;;;;;;;;20.00;17.25;;;;;10.79;71.51;100792.03;146614;575;45914;-76
2023/03/25 02:13:41;;;;;;;;;15.00;13.25;;;;;10.78;70.83;100791.12;146616;564;45021;-75
2023/03/25 02:17:14;;;;;;;;;13.00;11.50;;;;;9.65;70.12;100580.47;146617;579;45017;-76
2023/03/25 02:21:16;;;;;;;;;15.75;13.50;;;;;10.53;70.83;100731.03;146621;631;46010;-75
2023/03/25 02:25:22;;;;;;;;;20.50;16.50;;;;;10.63;71.58;100747.16;146615;581;45912;-76
2023/03/25 02:29:11;;;;;;;;;19.50;14.75;;;;;9.73;72.24;100597.31;146618;620;45020;-78
2023/03/25 02:32:50;;;;;;;;;19.25;16.75;;;;;10.69;73.41;100774.22;146615;607;45912;-78
2023/03/25 02:37:04;;;;;;;;;16.50;16.50;;;;;9.52;72.57;100581.53;146618;575;45020;-80
2023/03/25 02:40:56;;;;;;;;;;;;;;;;;;;;;
2023/03/25 02:44:06;;;;;;;;;14.50;14.50;;;;;10.76;72.29;100781.47;146618;616;45020;-72
2023/03/25 02:47:31;;;;;;;;;14.25;13.00;;;;;10.11;72.49;100670.94;146615;572;45914;-73
2023/03/25 02:51:09;;;;;;;;;15.50;15.25;;;;;10.72;71.98;100784.75;146613;570;46012;-73
2023/03/25 02:54:17;;;;;;;;;18.75;15.25;;;;;10.67;71.83;100789.69;146616;585;45030;-78
2023/03/25 02:57:33;;;;;;;;;16.50;15.25;;;;;10.65;71.71;100788.69;146618;566;45021;-78
2023/03/25 03:00:46;;;;;;;;;16.75;14.00;;;;;10.63;72.03;100786.03;146617;605;45020;-77
2023/03/25 03:03:56;;;;;;;;;;;;;;;;;;;;;
2023/03/25 03:07:03;;;;;;;;;14.75;13.75;;;;;10.60;71.83;100777.22;146616;600;45021;-75
2023/03/25 03:10:29;;;;;;;;;12.50;12.00;;;;;10.49;72.18;100748.13;146616;638;45032;-74
2023/03/25 03:14:07;;;;;;;;;17.25;14.75;;;;;10.51;72.84;100758.59;146616;575;45018;-76
2023/03/25 03:17:28;;;;;;;;;17.75;14.75;;;;;9.95;73.04;100677.03;146617;648;45021;-78
2023/03/25 03:21:06;;;;;;;;;17.50;16.50;;;;;10.50;73.71;100773.25;146616;574;45032;-78
2023/03/25 03:24:46;;;;;;;;;16.75;15.50;;;;;10.61;73.30;100777.28;146618;587;45020;-74
2023/03/25 03:28:15;;;;;;;;;17.50;15.25;;;;;10.75;73.86;100777.13;146615;611;45916;-75
2023/03/25 03:31:50;;;;;;;;;23.25;17.75;;;;;10.77;73.50;100762.50;146619;596;45020;-74
2023/03/25 03:35:20;;;;;;;;;21.75;18.00;;;;;10.91;72.85;100776.19;146613;575;45914;-78
2023/03/25 03:38:25;;;;;;;;;27.25;24.00;;;;;10.90;73.66;100770.09;146615;563;46012;-77
2023/03/25 03:41:40;;;;;;;;;26.25;24.75;;;;;9.80;73.83;100590.75;146616;600;45016;-77
2023/03/25 03:44:40;;;;;;;;;28.75;24.75;;;;;10.78;74.39;100767.78;146614;569;46020;-72
2023/03/25 03:47:55;;;;;;;;;24.00;22.75;;;;;10.75;74.34;100767.62;146613;578;45916;-75
2023/03/25 03:51:01;;;;;;;;;27.25;22.25;;;;;10.74;75.03;100762.34;146618;620;45034;-76
2023/03/25 03:54:37;;;;;;;;;24.00;22.00;;;;;10.56;74.11;100745.06;146614;599;45016;-75
2023/03/25 03:57:52;;;;;;;;;25.25;21.25;;;;;10.67;75.48;100770.62;146618;615;45020;-74
2023/03/25 04:01:26;;;;;;;;;25.00;22.25;;;;;8.50;74.80;100409.72;146614;583;46012;-78
2023/03/25 04:04:51;;;;;;;;;;;;;;;;;;;;;
2023/03/25 04:08:15;;;;;;;;;22.75;21.00;;;;;10.57;74.49;100769.28;146614;579;45915;-74
2023/03/25 04:11:22;;;;;;;;;21.75;20.00;;;;;10.58;75.17;100765.87;146617;605;45020;-73
2023/03/25 04:14:38;;;;;;;;;27.00;25.50;;;;;10.56;74.96;100770.06;146612;577;45916;-74
2023/03/25 04:17:44;;;;;;;;;22.25;19.00;;;;;10.57;75.26;100774.47;146617;566;45020;-73
2023/03/25 04:20:50;;;;;;;;;27.25;25.00;;;;;10.60;75.46;100777.22;146614;595;46012;-74
2023/03/25 04:23:51;;;;;;;;;28.50;23.50;;;;;10.59;75.11;100763.38;146617;704;45038;-73
2023/03/25 04:26:52;;;;;;;;;28.75;24.50;;;;;10.52;75.11;100769.03;146613;574;45916;-73
2023/03/25 04:29:52;;;;;;;;;26.75;22.50;;;;;10.42;75.91;100778.84;146616;592;46011;-77
2023/03/25 04:32:51;;;;;;;;;30.00;24.25;;;;;10.38;76.00;100782.97;146612;579;47014;-77
2023/03/25 04:35:53;;;;;;;;;28.50;26.00;;;;;10.36;75.90;100782.00;146617;604;45020;-77
2023/03/25 04:38:46;;;;;;;;;30.00;25.50;;;;;10.39;76.27;100784.75;146614;581;45915;-76
2023/03/25 04:42:00;;;;;;;;;24.50;23.00;;;;;10.40;76.29;100774.47;146616;630;45020;-72
2023/03/25 04:45:01;;;;;;;;;27.50;25.00;;;;;10.39;75.77;100779.56;146614;608;45913;-72
2023/03/25 04:48:13;;;;;;;;;24.00;22.25;;;;;10.36;75.74;100784.59;146619;586;45020;-73
2023/03/25 04:51:22;;;;;;;;;26.00;20.50;;;;;10.40;75.46;100783.94;146613;635;46013;-72
2023/03/25 04:54:35;;;;;;;;;24.75;20.00;;;;;10.44;75.44;100788.50;146618;657;45020;-73
2023/03/25 04:57:37;;;;;;;;;27.00;22.25;;;;;10.42;75.33;100779.72;146616;621;45016;-73
2023/03/25 05:00:41;;;;;;;;;23.50;19.75;;;;;10.39;75.19;100779.56;146616;585;46010;-73
2023/03/25 05:03:49;;;;;;;;;18.00;17.50;;;;;10.47;75.94;100788.66;146610;579;46016;-75
2023/03/25 05:07:07;;;;;;;;;16.25;15.75;;;;;11.13;79.88;100789.44;146617;618;45021;-77
2023/03/25 05:10:33;;;;;;;;;24.75;20.25;;;;;12.31;78.82;100799.41;146613;595;46012;-76
2023/03/25 05:13:28;;;;;;;;;47.25;37.00;;;;;13.36;73.20;100798.78;146611;564;46012;-75
2023/03/25 05:16:32;;;;;;;;;34.75;28.75;;;;;14.25;67.98;100804.88;146615;642;45035;-75
2023/03/25 05:19:27;;;;;;;;;18.75;17.25;;;;;14.92;64.87;100797.72;146617;583;45021;-75
2023/03/25 05:22:28;;;;;;;;;24.75;21.75;;;;;15.40;63.01;100795.91;146615;563;45913;-74
2023/03/25 05:25:27;;;;;;;;;19.25;16.00;;;;;15.64;60.86;100790.56;146617;569;45020;-76
2023/03/25 05:28:25;;;;;;;;;18.50;17.25;;;;;15.64;60.39;100787.97;146614;623;45914;-75
2023/03/25 05:31:29;;;;;;;;;15.75;15.75;;;;;15.59;61.74;100788.66;146615;579;46010;-74
2023/03/25 05:34:35;;;;;;;;;21.25;17.50;;;;;15.77;60.85;100793.63;146610;566;46012;-74
2023/03/25 05:37:42;;;;;;;;;22.75;17.25;;;;;15.89;59.92;100792.25;146617;659;45020;-73
2023/03/25 05:40:53;;;;;;;;;21.50;20.00;;;;;15.93;59.67;100796.72;146613;623;45017;-75
2023/03/25 05:44:13;;;;;;;;;26.75;25.00;;;;;15.90;60.26;100801.00;146612;598;45021;-75
2023/03/25 05:47:20;;;;;;;;;24.00;23.50;;;;;15.88;60.76;100810.50;146613;603;45018;-73
2023/03/25 05:50:29;;;;;;;;;32.25;25.00;;;;;15.90;60.88;100819.28;146617;578;45021;-74
2023/03/25 05:53:29;;;;;;;;;28.50;20.25;;;;;15.06;60.35;100658.09;146612;615;46012;-83
2023/03/25 05:56:43;;;;;;;;;;;;;;;;;;;;;
2023/03/25 06:00:17;;;;;;;;;;;;;;;;;;;;;
2023/03/25 06:03:47;;;;;;;;;27.75;25.00;;;;;15.84;60.92;100786.00;146616;619;45021;-81
2023/03/25 06:07:26;;;;;;;;;31.75;23.50;;;;;15.91;62.12;100803.63;146614;574;45016;-75
2023/03/25 06:10:33;;;;;;;;;32.00;29.00;;;;;16.04;62.07;100783.09;146616;602;46011;-77
2023/03/25 06:13:25;;;;;;;;;31.75;27.50;;;;;16.11;61.62;100772.87;146611;596;46012;-80
2023/03/25 06:16:26;;;;;;;;;31.75;28.25;;;;;16.00;62.77;100769.03;146610;577;45020;-77
2023/03/25 06:19:38;;;;;;;;;29.00;26.50;;;;;16.02;63.73;100766.47;146610;699;46014;-76
2023/03/25 06:22:55;;;;;;;;;30.50;27.50;;;;;16.13;63.65;100767.66;146619;565;45020;-81
2023/03/25 06:26:10;;;;;;;;;;;;;;;;;;;;;
2023/03/25 06:29:10;;;;;;;;;25.50;24.50;;;;;16.45;64.67;100776.47;146617;633;45024;-81
2023/03/25 06:32:36;;;;;;;;;26.75;23.75;;;;;14.99;63.82;100496.84;146615;659;46014;-75
2023/03/25 06:35:34;;;;;;;;;36.75;30.75;;;;;16.68;62.66;100797.16;146618;633;45021;-75
2023/03/25 06:39:04;;;;;;;;;30.75;26.25;;;;;16.70;62.83;100800.69;146615;595;45016;-76
2023/03/25 06:42:27;;;;;;;;;35.00;29.50;;;;;15.74;62.19;100600.94;146618;564;45021;-77
2023/03/25 06:45:30;;;;;;;;;29.50;28.25;;;;;17.12;62.66;100798.38;146616;668;46012;-76
2023/03/25 06:48:49;;;;;;;;;31.50;28.00;;;;;17.24;62.07;100759.37;146617;581;45021;-77
2023/03/25 06:51:47;;;;;;;;;32.50;29.00;;;;;17.74;60.12;100796.37;146616;571;45032;-76
2023/03/25 06:54:52;;;;;;;;;31.50;26.00;;;;;17.97;59.50;100793.44;146618;564;45020;-77
2023/03/25 06:57:50;;;;;;;;;30.75;28.25;;;;;18.12;58.63;100799.00;146615;595;45019;-76
2023/03/25 07:01:05;;;;;;;;;30.75;28.50;;;;;18.17;59.43;100796.50;146619;597;45020;-75
2023/03/25 07:04:18;;;;;;;;;35.25;29.75;;;;;18.23;58.51;100784.41;146615;605;45017;-77
2023/03/25 07:07:21;;;;;;;;;29.75;27.50;;;;;18.24;58.90;100799.28;146618;616;45020;-77
2023/03/25 07:10:17;;;;;;;;;38.00;30.00;;;;;18.30;58.83;100793.28;146614;564;45912;-76
2023/03/25 07:13:30;;;;;;;;;29.75;27.50;;;;;16.72;59.71;100493.53;146618;566;45020;-78
2023/03/25 07:16:59;;;;;;;;;38.50;30.00;;;;;16.92;59.74;100499.28;146616;611;45018;-76
2023/03/25 07:20:14;;;;;;;;;32.75;28.25;;;;;18.70;58.65;100780.94;146617;619;46008;-76
2023/03/25 07:23:20;;;;;;;;;28.00;25.00;;;;;18.77;58.45;100790.75;146612;577;45016;-76
2023/03/25 07:26:28;;;;;;;;;31.50;24.25;;;;;18.74;58.25;100779.28;146618;588;46010;-76
2023/03/25 07:29:54;;;;;;;;;32.25;25.25;;;;;18.64;59.40;100783.47;146616;592;45016;-77
2023/03/25 07:32:53;;;;;;;;;31.75;26.00;;;;;18.51;60.06;100771.84;146616;605;45021;-76
2023/03/25 07:35:50;;;;;;;;;25.50;23.75;;;;;18.51;59.88;100782.34;146615;640;45911;-77
2023/03/25 07:38:46;;;;;;;;;29.50;24.50;;;;;18.55;60.26;100778.91;146617;570;46012;-76
2023/03/25 07:41:45;;;;;;;;;27.75;23.00;;;;;18.61;59.45;100771.16;146613;615;46013;-76
2023/03/25 07:44:42;;;;;;;;;28.00;25.75;;;;;18.62;59.75;100772.03;146618;586;45020;-77
2023/03/25 07:47:40;;;;;;;;;29.00;23.75;;;;;18.62;59.41;100777.28;146615;603;45017;-77
2023/03/25 07:50:38;;;;;;;;;19.50;19.00;;;;;18.61;59.63;100775.53;146614;573;45021;-76
2023/03/25 07:53:30;;;;;;;;;23.25;21.25;;;;;18.55;59.84;100772.78;146616;624;45016;-77
2023/03/25 07:56:33;;;;;;;;;28.00;22.00;;;;;18.55;60.20;100781.53;146618;572;45021;-75
2023/03/25 07:59:42;;;;;;;;;22.50;20.00;;;;;18.60;60.52;100786.88;146614;633;46014;-78
2023/03/25 08:02:47;;;;;;;;;23.00;21.50;;;;;17.69;60.42;100597.81;146617;578;45026;-77
2023/03/25 08:05:52;;;;;;;;;23.75;21.50;;;;;18.78;59.11;100774.12;146616;576;45016;-77
2023/03/25 08:08:56;;;;;;;;;26.50;21.00;;;;;18.79;59.40;100769.78;146617;633;46012;-76
2023/03/25 08:12:08;;;;;;;;;22.50;18.50;;;;;18.75;59.64;100770.56;146615;727;46012;-77
2023/03/25 08:15:30;;;;;;;;;21.25;20.50;;;;;18.82;59.59;100772.47;146617;587;45020;-76
2023/03/25 08:18:43;;;;;;;;;26.25;21.50;;;;;18.00;58.05;100605.47;146620;622;45017;-76
2023/03/25 08:22:06;;;;;;;;;21.00;19.50;;;;;18.63;58.66;100690.66;146616;569;46010;-77
2023/03/25 08:25:12;;;;;;;;;20.00;18.00;;;;;19.24;56.70;100764.41;146607;583;47910;-77
2023/03/25 08:28:10;;;;;;;;;23.75;21.25;;;;;19.33;57.27;100761.94;146617;660;45051;-78
2023/03/25 08:31:11;;;;;;;;;21.75;21.25;;;;;19.39;57.34;100761.16;146612;581;45911;-77
2023/03/25 08:34:19;;;;;;;;;26.25;23.00;;;;;18.54;57.40;100590.72;146614;580;46995;-76
2023/03/25 08:37:36;;;;;;;;;22.25;20.00;;;;;19.57;57.33;100740.41;146612;602;46014;-76
2023/03/25 08:40:43;;;;;;;;;20.75;19.00;;;;;19.72;56.07;100738.87;146616;636;46010;-76
2023/03/25 08:43:55;;;;;;;;;18.00;14.50;;;;;19.78;53.81;100726.72;146615;693;45016;-77
2023/03/25 08:46:53;;;;;;;;;22.75;18.50;;;;;19.87;53.73;100714.53;146617;580;45021;-77
2023/03/25 08:49:57;;;;;;;;;21.25;20.25;;;;;19.96;53.31;100718.16;146612;567;46012;-77
2023/03/25 08:53:00;;;;;;;;;22.50;19.50;;;;;20.03;52.82;100721.75;146615;605;45020;-77
2023/03/25 08:56:04;;;;;;;;;15.25;15.25;;;;;20.05;52.09;100713.00;146614;617;45912;-77
2023/03/25 08:59:11;;;;;;;;;12.50;12.50;;;;;20.11;49.76;100717.47;146617;612;46010;-78
2023/03/25 09:02:39;;;;;;;;;16.75;14.50;;;;;20.20;51.77;100700.91;146613;573;45909;-77
2023/03/25 09:05:35;;;;;;;;;19.50;15.50;;;;;20.33;51.64;100708.06;146616;600;46023;-77
2023/03/25 09:08:43;;;;;;;;;20.25;15.75;;;;;20.50;50.83;100689.84;146616;566;45016;-76
2023/03/25 09:11:50;;;;;;;;;19.75;16.75;;;;;20.68;51.92;100690.03;146615;564;46010;-77
2023/03/25 09:14:46;;;;;;;;;19.00;15.00;;;;;20.84;49.61;100688.44;146614;574;45911;-78
2023/03/25 09:17:50;;;;;;;;;13.75;13.00;;;;;20.66;50.30;100632.94;146617;599;45024;-77
2023/03/25 09:20:48;;;;;;;;;17.25;16.00;;;;;21.11;50.15;100685.13;146613;575;45911;-77
2023/03/25 09:23:40;;;;;;;;;20.25;18.50;;;;;21.35;46.80;100686.19;146616;589;45021;-76
2023/03/25 09:26:43;;;;;;;;;12.00;11.50;;;;;21.37;40.91;100679.16;146614;648;45017;-77
2023/03/25 09:29:44;;;;;;;;;11.33;10.00;;;;;21.21;40.20;100678.16;146618;668;45020;-78
2023/03/25 09:32:43;;;;;;;;;7.75;7.75;;;;;21.02;40.01;100663.97;146612;578;47014;-77
2023/03/25 09:35:40;;;;;;;;;8.75;8.75;;;;;21.00;40.15;100665.72;146626;592;45020;-79
2023/03/25 09:38:41;;;;;;;;;9.00;8.00;;;;;20.89;39.54;100662.09;146623;655;45912;-77
2023/03/25 09:42:19;;;;;;;;;8.00;7.00;;;;;20.85;39.99;100663.84;146627;639;45021;-78
2023/03/25 09:45:50;;;;;;;;;17.75;15.50;;;;;20.90;46.19;100653.31;146622;563;45918;-77
2023/03/25 09:49:08;;;;;;;;;12.50;12.00;;;;;20.12;41.11;100511.28;146618;567;45028;-77
2023/03/25 09:52:05;;;;;;;;;12.75;11.50;;;;;21.16;45.84;100661.44;146616;651;45914;-78
2023/03/25 09:55:25;;;;;;;;;12.00;11.00;;;;;19.77;45.45;100379.41;146619;635;45021;-79
2023/03/25 09:58:57;;;;;;;;;19.75;16.00;;;;;21.72;49.27;100663.56;146614;566;45913;-77
2023/03/25 10:02:33;;;;;;;;;12.67;12.00;;;;;21.94;43.68;100667.16;146619;641;45021;-77
2023/03/25 10:06:19;;;;;;;;;19.00;15.75;;;;;20.50;49.71;100379.91;146613;670;45915;-78
2023/03/25 10:09:50;;;;;;;;;13.50;12.50;;;;;21.48;44.99;100494.59;146617;708;45021;-77
2023/03/25 10:13:33;;;;;;;;;11.67;10.33;;;;;22.35;43.67;100640.91;146614;591;45911;-77
2023/03/25 10:17:38;;;;;;;;;14.00;13.67;;;;;20.67;40.88;100352.78;146620;620;46010;-79
2023/03/25 10:21:07;;;;;;;;;13.50;13.25;;;;;20.50;45.04;100369.37;146614;607;45912;-78
2023/03/25 10:24:36;;;;;;;;;11.75;11.25;;;;;21.78;41.31;100615.19;146618;651;45022;-78
2023/03/25 10:27:54;;;;;;;;;17.75;16.75;;;;;21.82;46.23;100616.97;146615;581;45911;-78
2023/03/25 10:30:59;;;;;;;;;16.00;16.00;;;;;21.95;41.58;100607.31;146618;577;45033;-77
2023/03/25 10:34:14;;;;;;;;;21.50;19.50;;;;;22.01;44.89;100602.94;146616;686;45016;-76
2023/03/25 10:37:47;;;;;;;;;19.25;17.00;;;;;22.15;41.73;100595.06;146618;573;45020;-79
2023/03/25 10:40:52;;;;;;;;;21.00;19.25;;;;;22.19;41.28;100582.78;146614;573;45910;-77
2023/03/25 10:43:52;;;;;;;;;22.50;18.75;;;;;22.06;41.01;100574.81;146618;599;45020;-78
2023/03/25 10:47:31;;;;;;;;;;;;;;;;;;;;;
2023/03/25 10:50:38;;;;;;;;;22.00;20.00;;;;;22.02;42.04;100556.28;146617;686;45022;-78
2023/03/25 10:53:38;;;;;;;;;22.50;18.25;;;;;22.16;43.85;100551.06;146615;610;45912;-78
2023/03/25 10:56:52;;;;;;;;;20.75;17.50;;;;;22.36;45.55;100546.69;146617;600;45020;-78
2023/03/25 11:00:33;;;;;;;;;17.25;14.50;;;;;21.77;46.54;100394.38;146613;676;45910;-79
2023/03/25 11:04:08;;;;;;;;;19.00;17.75;;;;;21.40;44.23;100286.19;146616;571;46012;-78
2023/03/25 11:07:25;;;;;;;;;30.25;27.75;;;;;22.94;42.63;100535.22;146612;651;45017;-78
2023/03/25 11:10:31;;;;;;;;;21.00;18.75;;;;;22.90;43.55;100534.31;146619;576;45021;-78
2023/03/25 11:13:51;;;;;;;;;;;;;;;;;;;;;
2023/03/25 11:17:24;;;;;;;;;26.25;25.75;;;;;22.22;44.15;100379.44;146617;612;45023;-76
2023/03/25 11:20:33;;;;;;;;;17.50;16.25;;;;;22.89;41.42;100521.94;146613;579;46012;-76
2023/03/25 11:24:05;;;;;;;;;;;;;;;;;;;;;
2023/03/25 11:27:11;;;;;;;;;17.25;15.75;;;;;22.90;41.06;100512.28;146614;702;46012;-78
2023/03/25 11:30:32;;;;;;;;;17.25;15.00;;;;;22.81;41.04;100514.06;146619;575;45051;-83
2023/03/25 11:33:40;;;;;;;;;15.25;14.75;;;;;22.60;41.04;100496.47;146617;610;45016;-85
2023/03/25 11:37:11;;;;;;;;;15.00;13.00;;;;;22.37;44.04;100488.56;146619;621;46013;-85
2023/03/25 11:40:33;;;;;;;;;18.00;14.00;;;;;22.35;44.31;100494.75;146613;613;45913;-87
2023/03/25 11:43:37;;;;;;;;;14.67;14.00;;;;;22.40;41.55;100498.28;146619;574;46010;-87
2023/03/25 11:46:45;;;;;;;;;17.00;13.50;;;;;22.46;40.61;100477.13;146615;632;46014;-89
2023/03/25 11:49:55;;;;;;;;;15.75;11.75;;;;;22.56;41.03;100480.63;146618;700;46010;-84
2023/03/25 11:52:57;;;;;;;;;10.00;10.00;;;;;22.47;41.18;100470.94;146614;631;45916;-89
2023/03/25 11:56:24;;;;;;;;;13.33;11.67;;;;;21.45;41.18;100305.53;146618;581;46010;-86
2023/03/25 12:00:14;;;;;;;;;12.75;10.75;;;;;20.73;44.41;100205.28;146615;570;46013;-87
2023/03/25 12:03:51;;;;;;;;;12.50;11.50;;;;;21.41;43.15;100309.94;146618;656;45020;-84
2023/03/25 12:07:13;;;;;;;;;12.33;11.67;;;;;21.58;43.14;100319.63;146618;619;45016;-85
2023/03/25 12:10:30;;;;;;;;;10.67;10.67;;;;;22.48;40.05;100454.22;146617;604;46020;-87
2023/03/25 12:14:10;;;;;;;;;11.67;10.00;;;;;22.52;39.38;100444.50;146614;609;45915;-94
2023/03/25 12:17:53;;;;;;;;;14.50;11.75;;;;;20.89;41.98;100161.38;146618;655;45020;-82
2023/03/25 12:21:39;;;;;;;;;12.00;11.67;;;;;22.30;40.65;100431.34;146616;619;45913;-88
2023/03/25 12:25:17;;;;;;;;;15.25;14.50;;;;;21.44;42.91;100304.66;146626;596;45020;-87
2023/03/25 12:28:47;;;;;;;;;12.00;12.00;;;;;21.36;39.67;100279.16;146618;717;45915;-88
2023/03/25 12:32:34;;;;;;;;;;;;;;;;;;;;;
2023/03/25 12:36:07;;;;;;;;;12.33;11.33;;;;;20.94;41.38;100239.56;146622;577;45915;-86
2023/03/25 12:39:37;;;;;;;;;12.75;12.75;;;;;21.96;41.99;100411.97;146625;675;45021;-84
2023/03/25 12:43:27;;;;;;;;;11.00;11.00;;;;;22.13;43.09;100423.41;146621;573;45913;-90
2023/03/25 12:47:00;;;;;;;;;15.50;14.00;;;;;22.27;42.73;100425.19;146625;571;45023;-89
2023/03/25 12:50:31;;;;;;;;;12.25;10.75;;;;;22.27;39.80;100418.12;146622;580;45916;-84
2023/03/25 12:54:09;;;;;;;;;12.33;11.00;;;;;22.19;41.64;100412.00;146625;620;45031;-87
2023/03/25 12:58:00;;;;;;;;;11.00;10.00;;;;;21.35;41.10;100258.94;146621;641;47012;-88
2023/03/25 13:01:35;;;;;;;;;12.00;12.00;;;;;22.24;40.88;100398.78;146623;577;45021;-86
2023/03/25 13:05:13;;;;;;;;;10.75;9.75;;;;;22.33;41.62;100399.63;146620;671;45911;-83
2023/03/25 13:09:01;;;;;;;;;13.25;13.25;;;;;22.27;40.75;100385.56;146623;700;46010;-89
2023/03/25 13:12:26;;;;;;;;;16.00;13.00;;;;;22.07;42.46;100390.84;146621;680;45913;-89
2023/03/25 13:15:49;;;;;;;;;17.00;16.25;;;;;22.05;42.48;100382.03;146624;629;45023;-84
2023/03/25 13:19:05;;;;;;;;;16.75;15.50;;;;;22.07;38.61;100372.37;146623;631;45018;-89
2023/03/25 13:22:07;;;;;;;;;15.00;14.50;;;;;22.11;41.07;100374.09;146621;581;45021;-90
2023/03/25 13:25:14;;;;;;;;;11.33;10.00;;;;;22.07;39.33;100369.72;146614;602;45913;-86
2023/03/25 13:28:47;;;;;;;;;10.00;10.00;;;;;22.06;40.62;100357.41;146617;602;45021;-84
2023/03/25 13:32:08;;;;;;;;;13.00;9.67;;;;;22.07;40.41;100354.75;146614;664;45914;-85
2023/03/25 13:35:51;;;;;;;;;15.67;13.00;;;;;21.13;42.03;100203.56;146624;630;46010;-88
2023/03/25 13:39:22;;;;;;;;;12.75;12.00;;;;;21.95;40.01;100353.91;146612;595;45912;-93
2023/03/25 13:42:58;;;;;;;;;13.00;12.25;;;;;21.82;42.79;100348.63;146613;664;46010;-84
2023/03/25 13:46:27;;;;;;;;;14.00;13.00;;;;;19.98;42.55;100050.63;146612;698;46012;-87
2023/03/25 13:49:55;;;;;;;;;14.00;11.50;;;;;19.72;43.96;100013.75;146612;630;46012;-87
2023/03/25 13:53:32;;;;;;;;;13.50;11.00;;;;;21.52;43.02;100335.44;146612;569;45912;-85
2023/03/25 13:57:16;;;;;;;;;12.50;11.00;;;;;19.70;43.11;100049.69;146610;565;46010;-85
2023/03/25 14:00:56;;;;;;;;;19.00;13.25;;;;;21.31;42.66;100328.34;146612;617;45913;-85
2023/03/25 14:04:38;;;;;;;;;14.00;14.00;;;;;21.22;42.11;100323.97;146614;565;46012;-89
2023/03/25 14:08:12;;;;;;;;;18.75;16.75;;;;;21.19;43.03;100314.28;146612;580;45915;-87
2023/03/25 14:11:43;;;;;;;;;21.00;20.50;;;;;21.13;44.71;100316.91;146617;572;45020;-87
2023/03/25 14:14:43;;;;;;;;;20.75;18.50;;;;;21.08;44.31;100307.22;146612;569;45913;-84
2023/03/25 14:17:40;;;;;;;;;16.25;16.00;;;;;21.13;43.44;100313.41;146612;578;46020;-88
2023/03/25 14:20:49;;;;;;;;;16.50;16.25;;;;;21.15;44.74;100298.44;146610;610;45914;-85
2023/03/25 14:23:43;;;;;;;;;18.75;14.75;;;;;21.09;45.11;100294.06;146619;732;45020;-83
2023/03/25 14:26:51;;;;;;;;;18.25;16.75;;;;;21.04;45.40;100292.31;146611;572;46012;-82
2023/03/25 14:30:05;;;;;;;;;17.50;15.75;;;;;21.03;46.15;100301.97;146614;566;46010;-84
2023/03/25 14:33:07;;;;;;;;;17.50;16.50;;;;;21.03;47.19;100304.59;146613;609;46012;-85
2023/03/25 14:36:10;;;;;;;;;17.75;16.25;;;;;21.09;48.16;100301.06;146616;564;45021;-84
2023/03/25 14:39:15;;;;;;;;;13.50;12.75;;;;;21.12;48.86;100298.44;146612;675;46914;-84
2023/03/25 14:42:33;;;;;;;;;15.25;14.00;;;;;19.59;48.51;100028.59;146615;619;47010;-84
2023/03/25 14:45:57;;;;;;;;;20.50;16.50;;;;;21.21;48.16;100299.38;146614;607;46014;-83
2023/03/25 14:49:13;;;;;;;;;11.50;11.25;;;;;21.24;48.11;100298.47;146617;653;45020;-86
2023/03/25 14:52:10;;;;;;;;;14.00;13.25;;;;;21.27;48.78;100305.50;146611;610;46012;-88
2023/03/25 14:55:34;;;;;;;;;30.50;26.75;;;;;21.31;49.74;100294.06;146613;600;46020;-85
2023/03/25 14:58:41;;;;;;;;;13.00;13.00;;;;;21.34;50.15;100297.63;146612;569;45914;-86
2023/03/25 15:01:52;;;;;;;;;;;;;;;;;;;;;
2023/03/25 15:04:59;;;;;;;;;13.25;12.25;;;;;21.25;51.47;100288.81;146612;662;46914;-81
2023/03/25 15:08:18;;;;;;;;;14.50;14.00;;;;;19.39;51.49;99982.94;146614;570;46010;-80
2023/03/25 15:11:30;;;;;;;;;;;;;;;;;;;;;